Lafayette Regional Airport
KLFT : now visible

Airfield :











YOU CAN JOIN US ON...

 
LOGIN :

Register | Disclaimer

   EN    FR    IT 

 









Legend :    VFR   Marginal VFR   IFR   Intensive IFR   Very Intensive IFR
Visi :
Ceiling :
>= 8 km
>= 3000ft
5 to 8 km
1000 to 3000 ft
1500m to 5 km
500 to 1000 ft
800 to 1500m
200 to 500 ft
< 800m
< 200 ft
Symbols :   Thunderstorms  Fog  Heavy snow  Heavy precipitations  Wind > 20 kt







- Airport Elevation : 42 ft
- IATA code : LFT


KLFT - Lafayette Regional

CURRENT METAR :
  • 201337Z 24007KT 2SM BR BKN007 OVC012 21/20 A2988 RMK AO2 RAE07 P0000 T02060200

EXPIRED METARs :
  • 201253Z 24010KT 6SM -RA BR OVC005 22/21 A2986 RMK AO2 RAB03E16B51 SLP111 P0001 T02170211
  • 201153Z 18009G18KT 8SM OVC004 22/21 A2983 RMK AO2 SLP099 60001 70008 T02170211 10228 20217 55001
  • 201053Z AUTO 18010KT 6SM BR OVC004 22/21 A2982 RMK AO2 LTG DSNT SE AND S SLP096 T02170211
  • 201044Z AUTO 18013G18KT 6SM BR OVC004 22/21 A2981 RMK AO2 LTG DSNT SE AND S T02170211

TAF KLFT
Valid from the 20 at 12:00 until the 21 at 12:00 UTC


201130Z 2012/2112 18010KT 5SM BR VCTS OVC004CB
TEMPO 2012/2014 VRB10G18KT 1SM SHRA BR OVC003
FM201400 26010KT 5SM BR VCSH OVC003
FM201800 34010KT P6SM OVC015
FM202100 35008KT P6SM BKN050
FM210100 01006KT P6SM SCT025 BKN050
FM210600 03008KT P6SM VCSH OVC025
KZHU FIR / North America



MET'MAP, your aeronautical weather chart ! - Copyright ORBIFLY December 2007 - Disclaimer

ORBIFLY MET'MAP TEAM :

Programming & Development : Alexandra Zaïnal
Concept & Development : Baudouin d'Aumeries
Co-Development & Prog : Marc-Olivier Méhu
Technical & hardware support : Manuel Goepfert

Contact : metmap@orbifly.com




SOURCES & CREDITS :

   NOAA       Earth
Advisory